Reboucas, Brazil
Current Conditions -  °F | °C
As of 8:00 AM on Thursday 23 Oct 2014 (Local Time) from SBBI Reporting Station
Broken Clouds Broken Clouds  
Wind Chill: 55°   Ceiling: 1300
Heat Index: 55°   Visibility: 6mi
Dew Point: 50°   Wind: 5mph
Humidity: 82%   Direction: 70°ENE
Pressure: 30.21"   Gusts: NA
Location:  25.62°S, 50.69°W
Report Text: SBBI 231000Z 07004KT 9999 FEW010 BKN013 13/10 Q1023
Loading
Personal Weather Stations






























Interactive Weather Map
Tropical Storm Tracking
New forecast layout! Learn more

10-Day Weather Forecast

Advertisements
Track Severe Weather on mobile